Latest Weather Observations for Grafton AgRS

IDN60801

Issued at 9:05 pm EST Thursday 31 July 2014 (issued every 30 minutes, with the page automatically refreshed every 10 minutes)

About weather observations | Map of weather stations | Latest weather observations for NSW | Other Formats
Station Details ID: 058077 Name: GRAFTON RESEARCH STN Lat: -29.62 Lon: 152.96 Height: 25.0 m
Data from the previous 72 hours. | See also: Recent months for locations in New South Wales
Date/Time
EST
Temp
°C
App
Temp
°C
Dew
Point
Rel
Hum
%
Delta-T
°C
Wind Press
QNH
hPa
Press
MSL
hPa
Rain
since 9 am
mm
Dir
 
Spd
km/h
Gust
km/h
Spd
kts
Gust
kts
31/09:00pm 12.9 10.6 7.4 69 2.7 N 9 11 5 6 - - 0.0
31/08:30pm 12.2 10.5 8.5 78 1.8 SW 7 9 4 5 - - 0.0
31/08:00pm 15.9 14.2 7.7 58 4.1 NNW 6 7 3 4 - - 0.0
31/07:30pm 17.4 15.4 8.5 56 4.6 N 9 11 5 6 - - 0.0
31/07:00pm 16.7 15.9 11.6 72 2.8 NNE 7 11 4 6 - - 0.0
31/06:30pm 16.3 15.3 11.0 71 2.8 N 7 9 4 5 - - 0.0
31/06:00pm 17.2 16.2 11.0 67 3.3 N 7 11 4 6 - - 0.0
31/05:30pm 17.7 16.4 9.8 60 4.2 NE 7 11 4 6 - - 0.0
31/05:00pm 19.7 18.2 9.0 50 5.6 NE 7 11 4 6 - - 0.0
31/04:30pm 22.5 19.8 5.4 33 8.6 NE 9 15 5 8 - - 0.0
31/04:00pm 24.1 20.4 2.3 24 10.4 NNE 11 17 6 9 - - 0.0
31/03:30pm 24.7 21.3 3.9 26 10.3 N 11 20 6 11 - - 0.0
31/03:00pm 25.3 22.9 4.4 26 10.5 N 6 9 3 5 - - 0.0
31/02:30pm 24.7 21.3 3.9 26 10.3 NNE 11 19 6 10 - - 0.0
31/02:00pm 24.8 21.5 4.5 27 10.1 N 11 20 6 11 - - 0.0
31/01:30pm 24.5 21.2 4.3 27 10.0 NE 11 17 6 9 - - 0.0
31/01:00pm 23.9 21.2 5.8 31 9.2 NE 9 15 5 8 - - 0.0
31/12:30pm 22.0 19.0 5.8 35 8.1 ENE 11 17 6 9 - - 0.0
31/12:00pm 21.3 18.8 8.2 43 6.9 ESE 11 15 6 8 - - 0.0
31/11:30am 21.1 18.7 5.1 35 7.9 E 7 13 4 7 - - 0.0
31/11:00am 20.9 19.2 6.1 38 7.4 NNW 4 7 2 4 - - 0.0
31/10:30am 18.9 17.2 6.1 43 6.3 WNW 4 9 2 5 - - 0.0
31/10:00am 15.9 13.1 6.9 55 4.4 W 11 13 6 7 - - 0.0
31/09:30am 13.7 11.5 6.3 61 3.5 W 7 11 4 6 - - 0.0
31/09:00am 11.5 9.4 6.6 72 2.3 W 7 9 4 5 - - 0.0
31/08:30am 9.0 7.4 6.3 83 1.2 W 4 9 2 5 - - 0.0
31/08:00am 6.0 5.0 5.6 97 0.2 CALM 0 0 0 0 - - 0.0
31/07:30am 4.3 2.9 3.7 96 0.2 CALM 0 0 0 0 - - 0.0
31/07:00am 3.3 1.7 2.6 95 0.3 CALM 0 0 0 0 - - 0.0
31/06:30am 4.4 3.0 3.5 94 0.4 CALM 0 0 0 0 - - 0.0
31/06:00am 4.5 2.3 3.3 92 0.5 NNW 4 6 2 3 - - 0.0
31/05:30am 4.7 2.0 3.5 92 0.5 WNW 7 9 4 5 - - 0.0
31/05:00am 5.0 3.5 3.0 87 0.8 CALM 0 0 0 0 - - 0.0
31/04:30am 6.0 2.9 3.8 86 0.9 NW 9 15 5 8 - - 0.0
31/04:00am 4.9 3.5 3.7 92 0.5 CALM 0 0 0 0 - - 0.0
31/03:30am 6.1 3.5 4.1 87 0.9 NW 7 11 4 6 - - 0.0
31/03:00am 6.2 3.6 4.2 87 0.9 WNW 7 11 4 6 - - 0.0
31/02:30am 7.4 4.9 3.8 78 1.5 WNW 6 9 3 5 - - 0.0
31/02:00am 7.7 4.8 4.5 80 1.4 NNW 9 13 5 7 - - 0.0
31/01:30am 6.9 5.6 4.2 83 1.2 CALM 0 6 0 3 - - 0.0
31/01:00am 8.0 4.7 4.4 78 1.6 W 11 15 6 8 - - 0.0
31/12:30am 7.5 5.1 4.3 80 1.4 WSW 6 11 3 6 - - 0.0
31/12:00am 9.6 6.9 5.4 75 1.9 WNW 9 13 5 7 - - 0.0
 
Date/Time
EST
Temp
°C
App
Temp
°C
Dew
Point
Rel
Hum
%
Delta-T
°C
Wind Press
QNH
hPa
Press
MSL
hPa
Rain
since 9 am
mm
Dir
 
Spd
km/h
Gust
km/h
Spd
kts
Gust
kts
30/11:30pm 9.4 7.3 6.7 83 1.3 NNW 7 9 4 5 - - 0.0
30/11:00pm 9.1 7.6 6.7 85 1.1 NW 4 7 2 4 - - 0.0
30/10:30pm 10.4 8.8 7.8 84 1.3 W 6 7 3 4 - - 0.0
30/10:00pm 9.8 7.8 6.3 79 1.6 WSW 6 9 3 5 - - 0.0
30/09:30pm 11.0 10.4 7.5 79 1.7 CALM 0 0 0 0 - - 0.0
30/09:00pm 10.9 9.1 7.0 77 1.9 SSW 6 7 3 4 - - 0.0
30/08:30pm 11.3 10.6 6.8 74 2.1 CALM 0 0 0 0 - - 0.0
30/08:00pm 12.2 11.5 6.9 70 2.5 CALM 0 0 0 0 - - 0.0
30/07:30pm 13.9 12.9 7.4 65 3.2 NNE 2 7 1 4 - - 0.0
30/07:00pm 14.8 13.0 7.1 60 3.8 NNE 6 7 3 4 - - 0.0
30/06:30pm 16.0 13.9 6.7 54 4.6 NE 7 11 4 6 - - 0.0
30/06:00pm 16.8 14.4 5.1 46 5.6 NNE 7 9 4 5 - - 0.0
30/05:30pm 18.3 15.9 5.2 42 6.3 NE 7 9 4 5 - - 0.0
30/05:00pm 20.0 17.0 1.9 30 8.3 NNE 7 11 4 6 - - 0.0
30/04:30pm 22.1 19.1 1.7 26 9.5 NE 7 11 4 6 - - 0.0
30/04:00pm 22.7 19.6 1.1 24 10.0 ENE 7 13 4 7 - - 0.0
30/03:30pm 23.3 20.0 -0.2 21 10.6 ENE 7 11 4 6 - - 0.0
30/03:00pm 23.7 20.4 0.1 21 10.8 ENE 7 13 4 7 - - 0.0
30/02:30pm 23.2 19.6 0.3 22 10.5 E 9 15 5 8 - - 0.0
30/02:00pm 23.5 20.6 1.2 23 10.4 NE 6 13 3 7 - - 0.0
30/01:30pm 23.2 20.1 1.5 24 10.1 ENE 7 11 4 6 - - 0.0
30/01:00pm 23.0 20.0 1.9 25 9.9 SE 7 13 4 7 - - 0.0
30/12:30pm 22.5 20.1 4.5 31 8.9 ESE 6 9 3 5 - - 0.0
30/12:00pm 21.5 19.8 5.8 36 7.9 WSW 4 9 2 5 - - 0.0
30/11:30am 20.1 18.0 5.7 39 7.1 W 6 9 3 5 - - 0.0
30/11:00am 18.7 16.8 6.5 45 6.1 S 6 9 3 5 - - 0.0
30/10:30am 16.8 14.9 7.7 55 4.6 SE 7 9 4 5 - - 0.0
30/10:00am 15.2 14.3 7.7 61 3.7 WNW 2 6 1 3 - - 0.0
30/09:30am 12.4 11.5 7.9 74 2.2 ESE 2 6 1 3 - - 0.0
30/09:00am 11.1 10.0 6.8 75 2.0 WNW 2 6 1 3 - - 0.0
30/08:30am 6.7 5.0 6.1 96 0.3 SE 4 7 2 4 - - 0.0
30/08:00am 4.2 2.5 4.1 99 0.0 WNW 2 7 1 4 - - 0.0
30/07:30am 2.5 -0.3 2.1 97 0.2 W 6 9 3 5 - - 0.0
30/07:00am 3.1 0.4 2.7 97 0.2 WSW 6 7 3 4 - - 0.0
30/06:30am 3.2 1.6 2.5 95 0.3 CALM 0 0 0 0 - - 0.0
30/06:00am 3.5 1.9 2.6 94 0.4 CALM 0 6 0 3 - - 0.0
30/05:30am 4.0 2.6 3.3 95 0.3 CALM 0 6 0 3 - - 0.0
30/05:00am 5.0 2.4 4.0 93 0.4 NW 7 13 4 7 - - 0.0
30/04:30am 5.0 3.7 4.0 93 0.4 CALM 0 0 0 0 - - 0.0
30/04:00am 4.8 2.7 3.8 93 0.4 E 4 6 2 3 - - 0.0
30/03:30am 5.0 2.8 3.5 90 0.6 W 4 9 2 5 - - 0.0
30/03:00am 5.5 3.8 4.2 91 0.6 WSW 2 6 1 3 - - 0.0
30/02:30am 5.9 3.0 4.4 90 0.6 W 9 11 5 6 - - 0.0
30/02:00am 5.6 3.3 4.6 93 0.4 SW 6 7 3 4 - - 0.0
30/01:30am 6.0 4.4 4.6 91 0.6 SSW 2 6 1 3 - - 0.0
30/01:00am 6.7 4.2 5.0 89 0.7 WNW 7 9 4 5 - - 0.0
30/12:30am 6.7 4.3 4.5 86 1.0 N 6 7 3 4 - - 0.0
30/12:00am 7.8 4.8 4.0 77 1.6 W 9 15 5 8 - - 0.0
 
Date/Time
EST
Temp
°C
App
Temp
°C
Dew
Point
Rel
Hum
%
Delta-T
°C
Wind Press
QNH
hPa
Press
MSL
hPa
Rain
since 9 am
mm
Dir
 
Spd
km/h
Gust
km/h
Spd
kts
Gust
kts
29/11:30pm 7.8 5.6 5.3 84 1.1 W 6 7 3 4 - - 0.0
29/11:00pm 9.0 6.7 5.9 81 1.4 WNW 7 9 4 5 - - 0.0
29/10:30pm 9.6 7.7 6.7 82 1.4 WNW 6 9 3 5 - - 0.0
29/10:00pm 10.8 9.0 7.1 78 1.8 WNW 6 7 3 4 - - 0.0
29/09:30pm 10.5 8.5 7.0 79 1.7 W 7 7 4 4 - - 0.0
29/09:00pm 11.7 11.1 7.4 75 2.1 CALM 0 0 0 0 - - 0.0
29/08:30pm 11.2 10.0 6.5 73 2.2 ENE 2 6 1 3 - - 0.0
29/08:00pm 11.1 9.0 6.5 73 2.2 E 7 9 4 5 - - 0.0
29/07:30pm 11.9 10.1 7.0 72 2.3 SE 6 9 3 5 - - 0.0
29/07:00pm 12.2 10.6 6.5 68 2.7 E 4 7 2 4 - - 0.0
29/06:30pm 14.1 12.0 6.7 61 3.6 ENE 7 9 4 5 - - 0.0
29/06:00pm 15.2 13.0 6.2 55 4.3 NE 7 11 4 6 - - 0.0
29/05:30pm 16.5 14.1 5.2 47 5.4 NE 7 11 4 6 - - 0.0
29/05:00pm 18.7 16.1 3.3 36 7.2 NNE 6 11 3 6 - - 0.0
29/04:30pm 20.2 16.5 2.5 31 8.2 NNE 11 17 6 9 - - 0.0
29/04:00pm 21.4 18.2 3.1 30 8.7 NE 9 15 5 8 - - 0.0
29/03:30pm 22.1 19.3 3.3 29 9.0 NE 7 15 4 8 - - 0.0
29/03:00pm 21.7 18.3 3.9 31 8.6 E 11 15 6 8 - - 0.0
29/02:30pm 22.0 19.0 4.1 31 8.7 SE 9 13 5 7 - - 0.0
29/02:00pm 22.0 19.2 2.2 27 9.3 NNE 6 9 3 5 - - 0.0
29/01:30pm 21.5 18.4 3.7 31 8.6 W 9 13 5 7 - - 0.0
29/01:00pm 20.2 17.5 3.9 34 7.8 SE 7 13 4 7 - - 0.0
29/12:30pm 20.9 18.5 5.3 36 7.7 N 7 15 4 8 - - 0.0
29/12:00pm 19.5 16.8 5.6 40 6.8 WSW 9 17 5 9 - - 0.0
29/11:30am 18.7 15.9 5.2 41 6.6 WSW 9 17 5 9 - - 0.0
29/11:00am 17.9 15.2 5.5 44 6.0 WSW 9 13 5 7 - - 0.0
29/10:30am 15.9 13.5 5.2 49 5.1 W 7 11 4 6 - - 0.0
29/10:00am 14.6 12.3 5.7 55 4.2 W 7 9 4 5 - - 0.0
29/09:30am 11.8 10.7 6.9 72 2.3 SSE 2 6 1 3 - - 0.0
29/09:00am 9.3 8.6 7.1 86 1.0 CALM 0 0 0 0 - - 0.0
29/08:30am 7.3 6.4 5.9 91 0.6 CALM 0 4 0 2 - - 0.0
29/08:00am 4.8 3.2 4.7 99 0.0 W 2 7 1 4 - - 0.0
29/07:30am 2.5 -0.3 2.1 97 0.2 W 6 7 3 4 - - 0.0
29/07:00am 2.4 0.7 2.0 97 0.2 CALM 0 6 0 3 - - 0.0
29/06:30am 2.3 0.6 1.7 96 0.2 CALM 0 0 0 0 - - 0.0
29/06:00am 2.8 1.2 2.4 97 0.2 CALM 0 0 0 0 - - 0.0
29/05:30am 2.8 1.1 1.9 94 0.4 CALM 0 6 0 3 - - 0.0
29/05:00am 3.4 1.1 2.8 96 0.2 W 4 7 2 4 - - 0.0
29/04:30am 3.7 2.2 3.0 95 0.3 CALM 0 0 0 0 - - 0.0
29/04:00am 4.3 2.9 3.3 93 0.4 CALM 0 0 0 0 - - 0.0
29/03:30am 4.6 3.2 3.3 91 0.5 CALM 0 0 0 0 - - 0.0
29/03:00am 5.3 3.9 3.8 90 0.6 CALM 0 0 0 0 - - 0.0
29/02:30am 5.8 4.4 3.5 85 1.0 CALM 0 0 0 0 - - 0.0
29/02:00am 7.4 4.5 4.5 82 1.3 NW 9 11 5 6 - - 0.0
29/01:30am 7.8 5.3 4.6 80 1.4 NW 7 9 4 5 - - 0.0
29/01:00am 7.7 6.6 5.2 84 1.1 CALM 0 4 0 2 - - 0.0
29/12:30am 8.0 6.2 5.5 84 1.1 W 4 6 2 3 - - 0.0
29/12:00am 7.0 5.9 5.0 87 0.9 CALM 0 4 0 2 - - 0.0
 
Date/Time
EST
Temp
°C
App
Temp
°C
Dew
Point
Rel
Hum
%
Delta-T
°C
Wind Press
QNH
hPa
Press
MSL
hPa
Rain
since 9 am
mm
Dir
 
Spd
km/h
Gust
km/h
Spd
kts
Gust
kts
28/11:30pm 7.7 5.6 5.8 88 0.9 SW 6 7 3 4 - - 0.0
28/11:00pm 9.0 8.0 5.6 79 1.5 CALM 0 0 0 0 - - 0.0
28/10:30pm 9.9 8.6 4.3 68 2.5 CALM 0 0 0 0 - - 0.0
28/10:00pm 11.6 10.1 4.8 63 3.1 N 2 6 1 3 - - 0.0
28/09:30pm 11.4 9.2 5.3 66 2.8 N 6 7 3 4 - - 0.0

Other Formats:

Comma delimited format used in spreadsheet applications
http://www.bom.gov.au/fwo/IDN60801/IDN60801.95571.axf

JavaScript Object Notation format (JSON) in row-major order
http://www.bom.gov.au/fwo/IDN60801/IDN60801.95571.json